Time;durP1;ratioP1;P1;durP2;ratioP2;P2;SDS_P1;SDS_P2;PMS_P1;PMS_P2;Temp;Humidity;BMP_temperature;BMP_pressure;BME280_temperature;BME280_humidity;BME280_pressure;Samples;Min_cycle;Max_cycle;Signal;HPM_P1;HPM_P2
2022/09/04 00:01:13;;;;;;;3.08;1.20;;;;;;;;;;5005672;28;20118;-87
2022/09/04 00:03:59;;;;;;;4.35;1.25;;;;;;;;;;4986732;28;20049;-86
2022/09/04 00:06:30;;;;;;;4.40;1.20;;;;;;;;;;4981623;28;20088;-88
2022/09/04 00:09:21;;;;;;;6.25;1.10;;;;;;;;;;4990685;28;20041;-86
2022/09/04 00:12:09;;;;;;;4.57;1.45;;;;;;;;;;4997312;28;20034;-89
2022/09/04 00:14:48;;;;;;;4.85;1.27;;;;;;;;;;4990348;28;20117;-88
2022/09/04 00:17:27;;;;;;;3.40;1.15;;;;;;;;;;5005307;28;20121;-86
2022/09/04 00:20:01;;;;;;;5.97;1.50;;;;;;;;;;5006504;28;20122;-87
2022/09/04 00:22:28;;;;;;;5.20;1.50;;;;;;;;;;4989951;28;20112;-88
2022/09/04 00:25:23;;;;;;;3.63;1.07;;;;;;;;;;4992773;28;20183;-87
2022/09/04 00:27:51;;;;;;;3.40;1.20;;;;;;;;;;5001013;28;20276;-88
2022/09/04 00:30:19;;;;;;;5.75;1.50;;;;;;;;;;5005722;28;20064;-90
2022/09/04 00:32:50;;;;;;;3.97;1.30;;;;;;;;;;4989596;28;20034;-88
2022/09/04 00:35:19;;;;;;;2.70;0.98;;;;;;;;;;5005321;28;20083;-88
2022/09/04 00:37:56;;;;;;;2.13;1.05;;;;;;;;;;4997813;28;20104;-89
2022/09/04 00:40:29;;;;;;;2.75;1.10;;;;;;;;;;4990011;28;20487;-89
2022/09/04 00:43:06;;;;;;;3.55;1.30;;;;;;;;;;4989964;28;20394;-88
2022/09/04 00:46:01;;;;;;;3.63;1.30;;;;;;;;;;5006478;28;20041;-88
2022/09/04 00:48:57;;;;;;;3.95;1.23;;;;;;;;;;5006412;28;20308;-87
2022/09/04 00:51:32;;;;;;;2.78;1.20;;;;;;;;;;4996057;28;20038;-87
2022/09/04 00:54:22;;;;;;;3.40;1.13;;;;;;;;;;4992938;28;20046;-88
2022/09/04 00:56:51;;;;;;;2.42;1.10;;;;;;;;;;5005534;28;20462;-88
2022/09/04 00:59:41;;;;;;;2.80;1.15;;;;;;;;;;5006458;28;20038;-88
2022/09/04 01:02:33;;;;;;;4.80;1.60;;;;;;;;;;5005219;28;20033;-88
2022/09/04 01:05:04;;;;;;;2.75;1.20;;;;;;;;;;5006659;28;20034;-88
2022/09/04 01:07:42;;;;;;;4.95;1.40;;;;;;;;;;4993657;28;20053;-89
2022/09/04 01:10:27;;;;;;;4.40;1.20;;;;;;;;;;4987015;28;20549;-87
2022/09/04 01:13:13;;;;;;;4.18;1.30;;;;;;;;;;5004268;28;20512;-88
2022/09/04 01:15:58;;;;;;;5.32;1.30;;;;;;;;;;4988182;28;20493;-89
2022/09/04 01:18:34;;;;;;;4.68;1.17;;;;;;;;;;4989568;28;20034;-86
2022/09/04 01:20:59;;;;;;;2.75;1.20;;;;;;;;;;4993003;28;20082;-87
2022/09/04 01:23:42;;;;;;;4.40;1.20;;;;;;;;;;5006365;28;20543;-88
2022/09/04 01:26:45;;;;;;;3.75;1.15;;;;;;;;;;5004242;28;20446;-87
2022/09/04 01:29:48;;;;;;;3.10;1.15;;;;;;;;;;5004391;28;20061;-87
2022/09/04 01:32:44;;;;;;;3.80;1.17;;;;;;;;;;5005984;28;20045;-90
2022/09/04 01:35:33;;;;;;;5.68;1.00;;;;;;;;;;4993739;28;20049;-86
2022/09/04 01:38:34;;;;;;;2.92;1.08;;;;;;;;;;4984303;28;20037;-89
2022/09/04 01:41:14;;;;;;;1.85;0.80;;;;;;;;;;5003795;28;20759;-88
2022/09/04 01:43:39;;;;;;;3.65;1.10;;;;;;;;;;5005872;28;20133;-88
2022/09/04 01:46:30;;;;;;;3.30;1.15;;;;;;;;;;4988408;28;20540;-91
2022/09/04 01:49:06;;;;;;;3.70;1.27;;;;;;;;;;4982401;28;20038;-87
2022/09/04 01:51:39;;;;;;;3.10;1.17;;;;;;;;;;4995777;28;20485;-88
2022/09/04 01:54:34;;;;;;;2.70;1.23;;;;;;;;;;4990160;28;20056;-88
2022/09/04 01:57:06;;;;;;;3.88;1.20;;;;;;;;;;4987644;28;20108;-88
2022/09/04 01:59:49;;;;;;;3.22;0.95;;;;;;;;;;5004291;28;20076;-87
2022/09/04 02:02:33;;;;;;;3.38;1.00;;;;;;;;;;5004974;28;20033;-87
2022/09/04 02:05:07;;;;;;;2.45;1.00;;;;;;;;;;4988391;28;20033;-90
2022/09/04 02:07:48;;;;;;;2.25;1.00;;;;;;;;;;5003541;28;20521;-87
2022/09/04 02:10:57;;;;;;;2.60;1.02;;;;;;;;;;4987602;28;20038;-91
2022/09/04 02:13:35;;;;;;;2.30;1.10;;;;;;;;;;4990506;28;20095;-87
2022/09/04 02:16:09;;;;;;;2.95;1.02;;;;;;;;;;5003342;28;20042;-88
2022/09/04 02:18:43;;;;;;;4.00;1.15;;;;;;;;;;4994986;28;20092;-88
2022/09/04 02:21:34;;;;;;;2.78;0.93;;;;;;;;;;4986977;28;20034;-86
2022/09/04 02:24:05;;;;;;;4.15;1.00;;;;;;;;;;4996163;28;20497;-87
2022/09/04 02:26:54;;;;;;;3.03;0.90;;;;;;;;;;4995604;28;20037;-88
2022/09/04 02:29:47;;;;;;;2.33;0.82;;;;;;;;;;5004657;28;20121;-88
2022/09/04 02:32:19;;;;;;;2.08;0.80;;;;;;;;;;5003285;28;20041;-87
2022/09/04 02:35:04;;;;;;;2.83;0.80;;;;;;;;;;4988070;28;20038;-87
2022/09/04 02:38:02;;;;;;;2.92;0.98;;;;;;;;;;5003090;28;20548;-88
2022/09/04 02:40:36;;;;;;;2.20;1.00;;;;;;;;;;5006053;28;20525;-86
2022/09/04 02:43:30;;;;;;;2.67;0.90;;;;;;;;;;5004774;28;20042;-86
2022/09/04 02:46:16;;;;;;;2.83;1.00;;;;;;;;;;5002974;28;20056;-87
2022/09/04 02:49:01;;;;;;;3.13;1.20;;;;;;;;;;4987741;28;20038;-88
2022/09/04 02:51:42;;;;;;;3.30;1.00;;;;;;;;;;4987252;28;20045;-87
2022/09/04 02:54:16;;;;;;;2.78;1.10;;;;;;;;;;4987732;28;20393;-86
2022/09/04 02:56:59;;;;;;;2.08;0.82;;;;;;;;;;4987946;28;20775;-88
2022/09/04 02:59:48;;;;;;;3.92;1.20;;;;;;;;;;4988033;28;20042;-88
2022/09/04 03:02:22;;;;;;;2.88;1.00;;;;;;;;;;5003608;28;20029;-89
2022/09/04 03:04:59;;;;;;;3.20;1.10;;;;;;;;;;4987462;28;20048;-89
2022/09/04 03:07:32;;;;;;;3.00;0.90;;;;;;;;;;5002698;28;20046;-86
2022/09/04 03:10:03;;;;;;;2.38;0.90;;;;;;;;;;4987065;28;20038;-86
2022/09/04 03:12:47;;;;;;;2.47;0.90;;;;;;;;;;5003445;28;20038;-88
2022/09/04 03:15:26;;;;;;;3.38;0.90;;;;;;;;;;5003428;28;20038;-85
2022/09/04 03:18:47;;;;;;;4.32;0.90;;;;;;;;;;5006011;28;20486;-85
2022/09/04 03:21:18;;;;;;;4.30;1.25;;;;;;;;;;4910719;28;20105;-88
2022/09/04 03:23:54;;;;;;;3.53;0.82;;;;;;;;;;4991105;28;20120;-86
2022/09/04 03:26:22;;;;;;;2.38;0.85;;;;;;;;;;4986591;28;20058;-88
2022/09/04 03:29:05;;;;;;;3.55;0.82;;;;;;;;;;5004311;28;20041;-87
2022/09/04 03:31:40;;;;;;;3.10;1.30;;;;;;;;;;4992205;28;20034;-88
2022/09/04 03:34:09;;;;;;;2.95;0.98;;;;;;;;;;5008362;28;20034;-88
2022/09/04 03:36:42;;;;;;;2.20;0.90;;;;;;;;;;4984249;28;20046;-88
2022/09/04 03:39:27;;;;;;;2.58;1.02;;;;;;;;;;4997142;28;20510;-86
2022/09/04 03:42:28;;;;;;;4.30;1.00;;;;;;;;;;5005394;28;20034;-86
2022/09/04 03:45:37;;;;;;;2.15;0.93;;;;;;;;;;5006899;28;20040;-87
2022/09/04 03:48:17;;;;;;;5.45;1.02;;;;;;;;;;4950018;28;20062;-87
2022/09/04 03:51:09;;;;;;;2.33;0.73;;;;;;;;;;4964057;28;20068;-87
2022/09/04 03:53:55;;;;;;;3.53;0.90;;;;;;;;;;4949325;28;20093;-86
2022/09/04 03:56:41;;;;;;;2.75;0.93;;;;;;;;;;4948599;28;20058;-86
2022/09/04 03:59:12;;;;;;;4.22;0.90;;;;;;;;;;4950413;28;20043;-87
2022/09/04 04:01:51;;;;;;;1.58;0.70;;;;;;;;;;4948923;28;20039;-86
2022/09/04 04:05:09;;;;;;;2.42;0.98;;;;;;;;;;5546792;23;21091;-82
2022/09/04 04:07:59;;;;;;;2.00;0.80;;;;;;;;;;4974050;28;20499;-81
2022/09/04 04:10:49;;;;;;;3.92;0.95;;;;;;;;;;5028606;28;20033;-81
2022/09/04 04:13:25;;;;;;;4.70;1.00;;;;;;;;;;5023404;28;20057;-82
2022/09/04 04:16:10;;;;;;;3.88;1.10;;;;;;;;;;5007193;28;20505;-80
2022/09/04 04:18:44;;;;;;;2.55;0.88;;;;;;;;;;5039242;28;20037;-83
2022/09/04 04:21:29;;;;;;;2.42;0.90;;;;;;;;;;5027814;28;20106;-82
2022/09/04 04:24:27;;;;;;;2.50;1.10;;;;;;;;;;5043791;28;20083;-81
2022/09/04 04:27:11;;;;;;;3.92;1.00;;;;;;;;;;5020706;28;20044;-83
2022/09/04 04:29:54;;;;;;;3.22;0.90;;;;;;;;;;5028327;28;20040;-82
2022/09/04 04:33:04;;;;;;;3.08;0.90;;;;;;;;;;5013233;28;20022;-82
2022/09/04 04:35:51;;;;;;;2.28;1.00;;;;;;;;;;4929819;29;20590;-82
2022/09/04 04:38:25;;;;;;;2.30;0.98;;;;;;;;;;5014893;28;20180;-81
2022/09/04 04:40:59;;;;;;;1.98;0.80;;;;;;;;;;5014635;28;20064;-80
2022/09/04 04:43:47;;;;;;;3.20;0.93;;;;;;;;;;5005004;28;20072;-81
2022/09/04 04:46:35;;;;;;;2.33;0.90;;;;;;;;;;5010966;28;20117;-81
2022/09/04 04:49:37;;;;;;;3.50;1.20;;;;;;;;;;5029483;28;20033;-82
2022/09/04 04:52:07;;;;;;;2.40;0.73;;;;;;;;;;5028677;28;20043;-82
2022/09/04 04:55:04;;;;;;;3.45;0.98;;;;;;;;;;5028533;28;20029;-85
2022/09/04 04:58:11;;;;;;;4.40;1.20;;;;;;;;;;5011705;28;20037;-82
2022/09/04 05:00:42;;;;;;;3.58;0.82;;;;;;;;;;5042359;28;20033;-82
2022/09/04 05:03:18;;;;;;;2.35;0.90;;;;;;;;;;5030478;28;20086;-80
2022/09/04 05:06:00;;;;;;;2.60;0.90;;;;;;;;;;5001230;28;20038;-81
2022/09/04 05:08:28;;;;;;;4.32;0.93;;;;;;;;;;4991537;28;20049;-80
2022/09/04 05:11:29;;;;;;;2.47;0.90;;;;;;;;;;5006301;28;20082;-81
2022/09/04 05:14:13;;;;;;;2.83;1.08;;;;;;;;;;4934199;28;20375;-81
2022/09/04 05:17:03;;;;;;;2.50;0.82;;;;;;;;;;5020060;28;20053;-81
2022/09/04 05:19:39;;;;;;;5.32;0.90;;;;;;;;;;5001280;28;20124;-81
2022/09/04 05:22:33;;;;;;;2.55;0.95;;;;;;;;;;5006832;28;20116;-82
2022/09/04 05:25:26;;;;;;;2.70;1.10;;;;;;;;;;5007394;28;20449;-82
2022/09/04 05:28:09;;;;;;;2.83;1.10;;;;;;;;;;5004257;28;20087;-84
2022/09/04 05:30:50;;;;;;;2.88;0.90;;;;;;;;;;5017892;28;20045;-83
2022/09/04 05:33:33;;;;;;;2.08;0.80;;;;;;;;;;5019550;28;20049;-81
2022/09/04 05:36:12;;;;;;;2.22;0.82;;;;;;;;;;5016129;28;20586;-81
2022/09/04 05:39:19;;;;;;;2.03;0.90;;;;;;;;;;5005748;28;20149;-83
2022/09/04 05:42:10;;;;;;;3.33;0.90;;;;;;;;;;4993752;28;20515;-81
2022/09/04 05:44:48;;;;;;;2.13;0.80;;;;;;;;;;4993308;28;20050;-81
2022/09/04 05:47:36;;;;;;;2.47;0.90;;;;;;;;;;5016723;28;20484;-86
2022/09/04 05:50:29;;;;;;;3.65;1.08;;;;;;;;;;4956112;28;20205;-86
2022/09/04 05:53:40;;;;;;;2.33;0.98;;;;;;;;;;4976462;28;20393;-85
2022/09/04 05:56:17;;;;;;;3.88;0.90;;;;;;;;;;4965029;28;20036;-86
2022/09/04 05:58:58;;;;;;;;;;;;;;;;;;4985201;28;20490;-87
2022/09/04 06:02:03;;;;;;;3.17;0.80;;;;;;;;;;4993147;28;19924;-87
2022/09/04 06:05:07;;;;;;;2.42;1.00;;;;;;;;;;4965359;28;20057;-85
2022/09/04 06:08:13;;;;;;;2.08;1.10;;;;;;;;;;4977452;28;20484;-87
2022/09/04 06:10:44;;;;;;;5.28;1.08;;;;;;;;;;4964127;28;20641;-86
2022/09/04 06:13:24;;;;;;;2.20;0.82;;;;;;;;;;4986414;28;20088;-87
2022/09/04 06:16:16;;;;;;;2.58;1.08;;;;;;;;;;5012661;28;20034;-84
2022/09/04 06:19:18;;;;;;;5.53;1.10;;;;;;;;;;4980298;28;20037;-87
2022/09/04 06:22:19;;;;;;;4.40;1.20;;;;;;;;;;5006769;28;20469;-85
2022/09/04 06:24:47;;;;;;;3.55;1.05;;;;;;;;;;4975612;28;20068;-86
2022/09/04 06:27:37;;;;;;;2.15;1.00;;;;;;;;;;5017592;28;20785;-85
2022/09/04 06:30:13;;;;;;;5.22;1.20;;;;;;;;;;5003420;28;20041;-86
2022/09/04 06:33:23;;;;;;;2.80;1.10;;;;;;;;;;4995686;28;20168;-87
2022/09/04 06:36:22;;;;;;;2.95;1.10;;;;;;;;;;4951042;28;20033;-89
2022/09/04 06:39:02;;;;;;;2.00;0.90;;;;;;;;;;4992537;28;20096;-86
2022/09/04 06:42:12;;;;;;;3.50;1.10;;;;;;;;;;4986317;28;20053;-86
2022/09/04 06:45:45;;;;;;;3.70;1.30;;;;;;;;;;4962425;28;20045;-87
2022/09/04 06:48:16;;;;;;;3.72;1.70;;;;;;;;;;4989618;28;20111;-86
2022/09/04 06:51:07;;;;;;;3.42;1.30;;;;;;;;;;4959415;28;20183;-88
2022/09/04 06:53:49;;;;;;;4.72;1.50;;;;;;;;;;4974046;28;20034;-86
2022/09/04 06:56:34;;;;;;;3.40;1.30;;;;;;;;;;5003307;28;20040;-88
2022/09/04 06:59:12;;;;;;;2.47;1.10;;;;;;;;;;4987800;28;20042;-87
2022/09/04 07:01:51;;;;;;;3.88;1.25;;;;;;;;;;4981623;28;20041;-87
2022/09/04 07:04:28;;;;;;;4.50;1.45;;;;;;;;;;4964998;28;20383;-88
2022/09/04 07:07:15;;;;;;;5.20;1.60;;;;;;;;;;5005846;28;20041;-87
2022/09/04 07:10:09;;;;;;;1.92;0.90;;;;;;;;;;4978782;28;20137;-88
2022/09/04 07:13:32;;;;;;;3.50;1.40;;;;;;;;;;4968946;28;20459;-86
2022/09/04 07:16:37;;;;;;;2.90;1.02;;;;;;;;;;4895278;29;20039;-87
2022/09/04 07:19:31;;;;;;;3.63;1.35;;;;;;;;;;4980170;28;20485;-86
2022/09/04 07:22:18;;;;;;;5.55;1.77;;;;;;;;;;4977062;28;20492;-89
2022/09/04 07:24:55;;;;;;;3.15;1.30;;;;;;;;;;5006191;28;20393;-86
2022/09/04 07:27:34;;;;;;;3.03;1.33;;;;;;;;;;4990123;28;20424;-85
2022/09/04 07:30:04;;;;;;;3.70;1.52;;;;;;;;;;5018189;28;20041;-83
2022/09/04 07:32:48;;;;;;;3.40;1.42;;;;;;;;;;5006245;28;20030;-84
2022/09/04 07:35:33;;;;;;;3.67;1.40;;;;;;;;;;5003072;28;20045;-84
2022/09/04 07:38:17;;;;;;;5.07;1.80;;;;;;;;;;5007146;28;20103;-81
2022/09/04 07:40:46;;;;;;;4.53;1.67;;;;;;;;;;4997077;28;20033;-83
2022/09/04 07:43:23;;;;;;;3.50;1.40;;;;;;;;;;4994712;28;20042;-85
2022/09/04 07:46:09;;;;;;;3.08;1.30;;;;;;;;;;4996056;28;20026;-80
2022/09/04 07:48:43;;;;;;;3.80;1.60;;;;;;;;;;4983563;28;20041;-80
2022/09/04 07:51:16;;;;;;;3.45;1.50;;;;;;;;;;5001319;28;20087;-78
2022/09/04 07:54:29;;;;;;;3.28;1.30;;;;;;;;;;5001516;28;20068;-81
2022/09/04 07:57:10;;;;;;;3.10;1.30;;;;;;;;;;4969519;28;20117;-79
2022/09/04 07:59:39;;;;;;;3.08;1.20;;;;;;;;;;5005185;28;20539;-79
2022/09/04 08:02:17;;;;;;;3.83;1.60;;;;;;;;;;5009273;28;20037;-80
2022/09/04 08:05:14;;;;;;;3.83;1.83;;;;;;;;;;4982474;28;20064;-81
2022/09/04 08:07:39;;;;;;;4.15;1.63;;;;;;;;;;4950820;28;20049;-81
2022/09/04 08:10:26;;;;;;;4.32;1.55;;;;;;;;;;4961892;28;20045;-79
2022/09/04 08:12:57;;;;;;;3.28;1.63;;;;;;;;;;4981954;28;20109;-80
2022/09/04 08:15:31;;;;;;;4.18;1.55;;;;;;;;;;4980917;28;20053;-82
2022/09/04 08:18:26;;;;;;;4.38;1.60;;;;;;;;;;4980722;28;20038;-80
2022/09/04 08:21:08;;;;;;;3.83;1.42;;;;;;;;;;4999180;28;20397;-82
2022/09/04 08:23:56;;;;;;;3.60;1.50;;;;;;;;;;4980092;28;20130;-83
2022/09/04 08:26:40;;;;;;;3.53;1.50;;;;;;;;;;4995772;28;20397;-81
2022/09/04 08:29:21;;;;;;;5.50;2.13;;;;;;;;;;4995160;28;20039;-81
2022/09/04 08:32:17;;;;;;;5.63;2.00;;;;;;;;;;4986623;28;20062;-82
2022/09/04 08:35:05;;;;;;;6.38;1.63;;;;;;;;;;4973810;28;20039;-81
2022/09/04 08:38:29;;;;;;;3.20;1.50;;;;;;;;;;4964699;28;20488;-81
2022/09/04 08:41:31;;;;;;;3.75;1.75;;;;;;;;;;4912306;29;20051;-80
2022/09/04 08:44:25;;;;;;;3.85;1.77;;;;;;;;;;4891767;29;20052;-80
2022/09/04 08:47:16;;;;;;;5.60;1.90;;;;;;;;;;4922633;29;20070;-81
2022/09/04 08:50:16;;;;;;;5.40;3.35;;;;;;;;;;4930407;29;20091;-80
2022/09/04 08:53:17;;;;;;;3.67;1.65;;;;;;;;;;4938420;28;20526;-82
2022/09/04 08:55:54;;;;;;;5.13;1.58;;;;;;;;;;4940775;29;20058;-81
2022/09/04 08:58:57;;;;;;;2.72;1.30;;;;;;;;;;4931374;29;20042;-80
2022/09/04 09:02:04;;;;;;;4.75;1.75;;;;;;;;;;4919273;29;20467;-82
2022/09/04 09:04:48;;;;;;;4.60;1.60;;;;;;;;;;4938020;28;20491;-86
2022/09/04 09:07:32;;;;;;;3.15;1.40;;;;;;;;;;4951521;28;20427;-88
2022/09/04 09:10:31;;;;;;;3.20;1.38;;;;;;;;;;4905100;28;20466;-91
2022/09/04 09:13:31;;;;;;;5.55;1.40;;;;;;;;;;4932510;28;20174;-93
2022/09/04 09:16:05;;;;;;;2.80;1.35;;;;;;;;;;4925134;28;20495;-88
2022/09/04 09:18:36;;;;;;;3.17;1.25;;;;;;;;;;4958426;28;20462;-85
2022/09/04 09:21:27;;;;;;;2.75;1.33;;;;;;;;;;4984552;28;20388;-84
2022/09/04 09:24:04;;;;;;;2.60;1.20;;;;;;;;;;5001294;28;20430;-82
2022/09/04 09:26:50;;;;;;;4.18;1.20;;;;;;;;;;4998089;28;20030;-84
2022/09/04 09:29:37;;;;;;;5.50;1.23;;;;;;;;;;5012047;28;20088;-85
2022/09/04 09:32:30;;;;;;;2.60;1.20;;;;;;;;;;4994344;28;20038;-86
2022/09/04 09:35:08;;;;;;;3.20;1.10;;;;;;;;;;4976919;28;20042;-86
2022/09/04 09:37:59;;;;;;;3.85;1.23;;;;;;;;;;5010736;28;20220;-83
2022/09/04 09:40:54;;;;;;;2.60;1.10;;;;;;;;;;4993832;28;20041;-85
2022/09/04 09:43:49;;;;;;;2.40;1.00;;;;;;;;;;4995570;28;20563;-88
2022/09/04 09:46:49;;;;;;;2.70;0.95;;;;;;;;;;4997404;28;20045;-84
2022/09/04 09:49:42;;;;;;;2.42;1.10;;;;;;;;;;5002317;28;20610;-86
2022/09/04 09:52:35;;;;;;;2.60;1.33;;;;;;;;;;4983490;28;20402;-84
2022/09/04 09:55:21;;;;;;;2.47;1.10;;;;;;;;;;5010468;28;20049;-85
2022/09/04 09:58:20;;;;;;;2.60;1.10;;;;;;;;;;5015986;28;20362;-84
2022/09/04 10:01:03;;;;;;;3.45;1.30;;;;;;;;;;5012610;28;20077;-85
2022/09/04 10:03:37;;;;;;;2.67;1.00;;;;;;;;;;4994181;28;20042;-85
2022/09/04 10:06:27;;;;;;;2.65;1.10;;;;;;;;;;5012269;28;20050;-85
2022/09/04 10:08:55;;;;;;;3.85;1.20;;;;;;;;;;4998849;28;20057;-84
2022/09/04 10:11:35;;;;;;;3.35;1.45;;;;;;;;;;5013237;28;20034;-84
2022/09/04 10:14:04;;;;;;;3.30;1.30;;;;;;;;;;4998386;28;20198;-85
2022/09/04 10:16:34;;;;;;;3.75;1.30;;;;;;;;;;4995682;28;20038;-84
2022/09/04 10:19:37;;;;;;;3.22;0.90;;;;;;;;;;5014736;28;20396;-84
2022/09/04 10:22:24;;;;;;;2.80;1.13;;;;;;;;;;5011625;28;20030;-85
2022/09/04 10:25:08;;;;;;;2.38;1.10;;;;;;;;;;4995959;28;20080;-86
2022/09/04 10:27:58;;;;;;;2.40;1.13;;;;;;;;;;5000518;28;20053;-86
2022/09/04 10:30:28;;;;;;;3.25;1.38;;;;;;;;;;4992475;28;20121;-85
2022/09/04 10:33:11;;;;;;;4.40;1.40;;;;;;;;;;5000979;28;20907;-84
2022/09/04 10:35:55;;;;;;;3.25;1.38;;;;;;;;;;4994524;28;20042;-84
2022/09/04 10:38:28;;;;;;;3.28;0.90;;;;;;;;;;4986087;28;20089;-84
2022/09/04 10:41:17;;;;;;;4.55;1.10;;;;;;;;;;4979703;28;20046;-84
2022/09/04 10:44:10;;;;;;;2.88;1.02;;;;;;;;;;4983891;28;20077;-85
2022/09/04 10:46:50;;;;;;;2.78;0.93;;;;;;;;;;5002729;28;20061;-85
2022/09/04 10:49:29;;;;;;;3.15;1.17;;;;;;;;;;4984473;28;20045;-84
2022/09/04 10:52:13;;;;;;;2.65;1.08;;;;;;;;;;4998504;28;20254;-84
2022/09/04 10:55:27;;;;;;;2.65;0.93;;;;;;;;;;5005348;28;20053;-84
2022/09/04 10:58:10;;;;;;;2.20;1.00;;;;;;;;;;4973673;28;20114;-84
2022/09/04 11:00:58;;;;;;;3.35;0.93;;;;;;;;;;4980698;28;20041;-85
2022/09/04 11:03:45;;;;;;;2.25;1.00;;;;;;;;;;5017151;28;20050;-84
2022/09/04 11:06:29;;;;;;;;;;;;;;;;;;5016093;28;20524;-84
2022/09/04 11:08:59;;;;;;;2.22;0.98;;;;;;;;;;5021132;28;19921;-86
2022/09/04 11:11:32;;;;;;;2.45;1.13;;;;;;;;;;5001650;28;20095;-86
2022/09/04 11:14:24;;;;;;;5.13;1.30;;;;;;;;;;5003881;28;20558;-85
2022/09/04 11:17:31;;;;;;;2.20;0.98;;;;;;;;;;5020014;28;20104;-85
2022/09/04 11:20:11;;;;;;;3.13;0.90;;;;;;;;;;5002013;28;20036;-85
2022/09/04 11:23:03;;;;;;;2.42;0.90;;;;;;;;;;5017489;28;20507;-88
2022/09/04 11:26:04;;;;;;;2.40;0.90;;;;;;;;;;4977966;28;20030;-86
2022/09/04 11:28:57;;;;;;;3.60;1.17;;;;;;;;;;5008643;28;20061;-84
2022/09/04 11:31:35;;;;;;;2.25;0.90;;;;;;;;;;5001008;28;20041;-84
2022/09/04 11:34:33;;;;;;;2.53;1.00;;;;;;;;;;5002545;28;20378;-85
2022/09/04 11:37:17;;;;;;;2.90;1.00;;;;;;;;;;5017204;28;20084;-85
2022/09/04 11:40:03;;;;;;;2.42;0.85;;;;;;;;;;5003487;28;20041;-87
2022/09/04 11:42:32;;;;;;;2.20;1.05;;;;;;;;;;5004529;28;20508;-86
2022/09/04 11:45:15;;;;;;;2.85;1.05;;;;;;;;;;4992944;28;20028;-86
2022/09/04 11:47:53;;;;;;;3.13;1.10;;;;;;;;;;5018534;28;20041;-86
2022/09/04 11:50:43;;;;;;;2.40;0.90;;;;;;;;;;5019664;28;20034;-89
2022/09/04 11:53:35;;;;;;;2.90;1.13;;;;;;;;;;5019343;28;20045;-88
2022/09/04 11:56:28;;;;;;;3.70;1.00;;;;;;;;;;5016783;28;20121;-87
2022/09/04 11:59:09;;;;;;;2.45;1.10;;;;;;;;;;5017986;28;20025;-89
2022/09/04 12:01:52;;;;;;;2.58;0.98;;;;;;;;;;5010242;28;20063;-88
2022/09/04 12:04:24;;;;;;;2.47;1.10;;;;;;;;;;4990552;28;20049;-88
2022/09/04 12:07:14;;;;;;;2.97;0.95;;;;;;;;;;4991351;28;20038;-86
2022/09/04 12:10:09;;;;;;;2.30;0.90;;;;;;;;;;5016421;28;20060;-84
2022/09/04 12:12:55;;;;;;;2.42;1.10;;;;;;;;;;5012685;28;20038;-83
2022/09/04 12:15:39;;;;;;;2.83;1.00;;;;;;;;;;5020415;28;20056;-86
2022/09/04 12:18:19;;;;;;;3.13;1.70;;;;;;;;;;5022399;28;20370;-87
2022/09/04 12:20:54;;;;;;;3.58;1.10;;;;;;;;;;4994265;28;20496;-83
2022/09/04 12:23:55;;;;;;;2.63;1.20;;;;;;;;;;4992495;28;20038;-87
2022/09/04 12:26:50;;;;;;;3.17;1.20;;;;;;;;;;5024354;28;20095;-82
2022/09/04 12:29:46;;;;;;;2.78;1.20;;;;;;;;;;5026060;28;20034;-82
2022/09/04 12:32:43;;;;;;;2.47;1.20;;;;;;;;;;5001089;28;20111;-81
2022/09/04 12:35:17;;;;;;;2.58;1.10;;;;;;;;;;4993779;28;20057;-79
2022/09/04 12:38:06;;;;;;;4.07;1.20;;;;;;;;;;5008103;28;20191;-82
2022/09/04 12:41:01;;;;;;;3.08;1.20;;;;;;;;;;5007836;28;20091;-81
2022/09/04 12:44:00;;;;;;;3.17;1.25;;;;;;;;;;5002714;28;20036;-81
2022/09/04 12:47:12;;;;;;;2.67;1.23;;;;;;;;;;4968662;28;20597;-82
2022/09/04 12:50:03;;;;;;;3.63;1.20;;;;;;;;;;4964288;28;20059;-82
2022/09/04 12:53:06;;;;;;;2.25;1.08;;;;;;;;;;4970329;28;20050;-81
2022/09/04 12:55:55;;;;;;;2.38;1.00;;;;;;;;;;4952505;28;20046;-80
2022/09/04 12:58:46;;;;;;;2.83;1.30;;;;;;;;;;4934365;29;20040;-81
2022/09/04 13:01:14;;;;;;;2.33;1.00;;;;;;;;;;4930508;28;20035;-82
2022/09/04 13:03:54;;;;;;;3.30;1.33;;;;;;;;;;4931187;28;20063;-82
2022/09/04 13:06:26;;;;;;;4.55;1.42;;;;;;;;;;4935878;28;20600;-83
2022/09/04 13:08:52;;;;;;;3.53;1.30;;;;;;;;;;4933707;28;20114;-83
2022/09/04 13:11:54;;;;;;;2.50;1.15;;;;;;;;;;4930566;28;20726;-81
2022/09/04 13:14:26;;;;;;;2.90;1.30;;;;;;;;;;4946183;28;20049;-82
2022/09/04 13:17:19;;;;;;;4.38;1.20;;;;;;;;;;4948571;28;20486;-82
2022/09/04 13:19:54;;;;;;;4.15;1.40;;;;;;;;;;4933540;28;20039;-81
2022/09/04 13:22:57;;;;;;;3.78;1.33;;;;;;;;;;4944943;28;20136;-82
2022/09/04 13:26:10;;;;;;;4.18;1.20;;;;;;;;;;4961146;28;20031;-80
2022/09/04 13:29:14;;;;;;;2.47;1.20;;;;;;;;;;4912341;29;20062;-82
2022/09/04 13:31:51;;;;;;;4.25;1.30;;;;;;;;;;4937160;28;20056;-81
2022/09/04 13:34:17;;;;;;;;;;;;;;;;;;4923760;29;20094;-81
2022/09/04 13:36:48;;;;;;;2.63;1.00;;;;;;;;;;4937381;28;20322;-83
2022/09/04 13:39:22;;;;;;;2.58;1.13;;;;;;;;;;4940591;28;20279;-83
2022/09/04 13:42:09;;;;;;;3.17;0.98;;;;;;;;;;4922387;29;20122;-83
2022/09/04 13:44:44;;;;;;;;;;;;;;;;;;4927436;28;20039;-82
2022/09/04 13:47:19;;;;;;;3.20;1.55;;;;;;;;;;4929731;29;20337;-83
2022/09/04 13:49:53;;;;;;;2.85;1.30;;;;;;;;;;4930980;28;20524;-83
2022/09/04 13:52:35;;;;;;;2.65;1.23;;;;;;;;;;4926039;29;20039;-82
2022/09/04 13:55:12;;;;;;;3.45;1.30;;;;;;;;;;4933670;29;20490;-82
2022/09/04 13:57:46;;;;;;;2.42;1.20;;;;;;;;;;4930082;28;20133;-84
2022/09/04 14:00:13;;;;;;;3.17;1.17;;;;;;;;;;4997743;28;20056;-84
2022/09/04 14:02:40;;;;;;;2.92;1.25;;;;;;;;;;4987664;28;20042;-83
2022/09/04 14:05:13;;;;;;;2.75;1.33;;;;;;;;;;5010487;28;20048;-82
2022/09/04 14:07:43;;;;;;;2.50;1.20;;;;;;;;;;5003485;28;20505;-82
2022/09/04 14:10:12;;;;;;;2.90;1.27;;;;;;;;;;5006418;28;20664;-84
2022/09/04 14:12:43;;;;;;;2.75;1.13;;;;;;;;;;4991815;28;20388;-83
2022/09/04 14:15:31;;;;;;;2.85;1.27;;;;;;;;;;5016771;28;20050;-85
2022/09/04 14:18:12;;;;;;;2.50;1.20;;;;;;;;;;4993194;28;20034;-83
2022/09/04 14:21:04;;;;;;;2.67;1.30;;;;;;;;;;5016176;28;20346;-83
2022/09/04 14:23:36;;;;;;;2.92;1.10;;;;;;;;;;5011277;28;20121;-82
2022/09/04 14:26:36;;;;;;;3.35;1.60;;;;;;;;;;5007408;28;20417;-82
2022/09/04 14:29:09;;;;;;;3.20;1.40;;;;;;;;;;5019783;28;20480;-83
2022/09/04 14:31:49;;;;;;;3.45;1.45;;;;;;;;;;5016577;28;20037;-83
2022/09/04 14:34:41;;;;;;;2.47;1.23;;;;;;;;;;4997336;28;20036;-84
2022/09/04 14:37:09;;;;;;;3.22;1.40;;;;;;;;;;4983814;28;20370;-86
2022/09/04 14:39:47;;;;;;;4.35;1.48;;;;;;;;;;5018691;28;20540;-83
2022/09/04 14:42:27;;;;;;;2.80;1.25;;;;;;;;;;4992770;28;20472;-83
2022/09/04 14:45:24;;;;;;;2.30;1.10;;;;;;;;;;5020179;28;20404;-85
2022/09/04 14:47:56;;;;;;;2.78;1.30;;;;;;;;;;4984473;28;20128;-84
2022/09/04 14:50:29;;;;;;;2.78;1.48;;;;;;;;;;5007761;28;20100;-84
2022/09/04 14:53:03;;;;;;;3.33;1.40;;;;;;;;;;5007358;28;20042;-83
2022/09/04 14:55:39;;;;;;;3.17;1.40;;;;;;;;;;5002089;28;20033;-83
2022/09/04 14:58:30;;;;;;;3.10;1.25;;;;;;;;;;5007396;28;20516;-81
2022/09/04 15:01:19;;;;;;;2.60;1.23;;;;;;;;;;4992672;28;20041;-85
2022/09/04 15:03:49;;;;;;;2.53;1.10;;;;;;;;;;4967436;28;20130;-85
2022/09/04 15:06:20;;;;;;;3.42;1.40;;;;;;;;;;4949214;28;20089;-81
2022/09/04 15:08:49;;;;;;;2.85;1.20;;;;;;;;;;4934609;28;20450;-80
2022/09/04 15:11:26;;;;;;;6.10;1.27;;;;;;;;;;4949752;28;20053;-82
2022/09/04 15:14:03;;;;;;;;;;;;;;;;;;4954101;28;20554;-84
2022/09/04 15:16:35;;;;;;;;;;;;;;;;;;4951743;28;19914;-83
2022/09/04 15:19:18;;;;;;;2.90;1.27;;;;;;;;;;4967186;28;19914;-84
2022/09/04 15:22:03;;;;;;;4.32;1.50;;;;;;;;;;4965101;28;20060;-84
2022/09/04 15:24:33;;;;;;;2.92;1.30;;;;;;;;;;4933991;28;20126;-83
2022/09/04 15:27:15;;;;;;;3.63;1.45;;;;;;;;;;4949798;28;20074;-83
2022/09/04 15:29:44;;;;;;;3.78;1.42;;;;;;;;;;4943636;28;20047;-83
2022/09/04 15:32:12;;;;;;;2.72;1.30;;;;;;;;;;4942127;28;20089;-84
2022/09/04 15:34:37;;;;;;;2.90;1.23;;;;;;;;;;4954422;28;20042;-83
2022/09/04 15:37:28;;;;;;;3.33;1.30;;;;;;;;;;4954153;28;20037;-83
2022/09/04 15:40:01;;;;;;;4.30;1.15;;;;;;;;;;4935896;28;20484;-84
2022/09/04 15:42:37;;;;;;;2.70;1.20;;;;;;;;;;5001877;28;20045;-84
2022/09/04 15:45:10;;;;;;;3.55;1.35;;;;;;;;;;4986871;28;20041;-83
2022/09/04 15:47:57;;;;;;;6.07;1.50;;;;;;;;;;4991442;28;20039;-85
2022/09/04 15:50:26;;;;;;;5.95;1.30;;;;;;;;;;4993999;28;20065;-83
2022/09/04 15:53:00;;;;;;;2.92;1.40;;;;;;;;;;4987384;28;20428;-80
2022/09/04 15:55:37;;;;;;;4.45;1.40;;;;;;;;;;4967316;28;20166;-82
2022/09/04 15:58:03;;;;;;;3.00;1.30;;;;;;;;;;4986318;28;20489;-81
2022/09/04 16:00:31;;;;;;;3.42;1.30;;;;;;;;;;4981016;28;20055;-81
2022/09/04 16:03:16;;;;;;;3.20;1.40;;;;;;;;;;4981175;28;20042;-80
2022/09/04 16:05:54;;;;;;;2.42;1.20;;;;;;;;;;5010736;28;20062;-82
2022/09/04 16:08:25;;;;;;;4.38;1.30;;;;;;;;;;5006234;28;20042;-81
2022/09/04 16:11:03;;;;;;;2.97;1.40;;;;;;;;;;5006184;28;20085;-81
2022/09/04 16:13:33;;;;;;;;;;;;;;;;;;4998312;28;20620;-82
2022/09/04 16:16:11;;;;;;;2.75;1.17;;;;;;;;;;4988096;28;20447;-80
2022/09/04 16:18:37;;;;;;;2.75;1.10;;;;;;;;;;5003581;28;20085;-79
2022/09/04 16:21:10;;;;;;;3.50;1.42;;;;;;;;;;5016758;28;20034;-78
2022/09/04 16:23:39;;;;;;;3.72;1.48;;;;;;;;;;5001107;28;20371;-78
2022/09/04 16:26:10;;;;;;;2.72;1.30;;;;;;;;;;4992710;28;20036;-79